sensor_id;sensor_type;location;lat;lon;timestamp;pressure;altitude;pressure_sealevel;temperature;humidity
62710;BME280;48770;51.624;5.886;2023-03-01T00:00:49;102950.84;;;19.80;36.71
62710;BME280;48770;51.624;5.886;2023-03-01T00:03:15;102963.06;;;19.79;36.77
62710;BME280;48770;51.624;5.886;2023-03-01T00:05:44;102962.25;;;19.79;36.82
62710;BME280;48770;51.624;5.886;2023-03-01T00:08:10;102957.78;;;19.78;36.87
62710;BME280;48770;51.624;5.886;2023-03-01T00:10:36;102963.63;;;19.76;36.88
62710;BME280;48770;51.624;5.886;2023-03-01T00:13:01;102958.09;;;19.76;36.96
62710;BME280;48770;51.624;5.886;2023-03-01T00:15:27;102961.97;;;19.75;36.91
62710;BME280;48770;51.624;5.886;2023-03-01T00:17:53;102962.56;;;19.72;36.79
62710;BME280;48770;51.624;5.886;2023-03-01T00:20:18;102965.34;;;19.72;37.02
62710;BME280;48770;51.624;5.886;2023-03-01T00:22:43;102966.47;;;19.71;36.95
62710;BME280;48770;51.624;5.886;2023-03-01T00:25:08;102966.75;;;19.69;36.75
62710;BME280;48770;51.624;5.886;2023-03-01T00:27:34;102961.50;;;19.68;36.65
62710;BME280;48770;51.624;5.886;2023-03-01T00:29:59;102962.63;;;19.67;36.85
62710;BME280;48770;51.624;5.886;2023-03-01T00:32:24;102953.78;;;19.65;36.93
62710;BME280;48770;51.624;5.886;2023-03-01T00:34:50;102951.00;;;19.65;36.66
62710;BME280;48770;51.624;5.886;2023-03-01T00:37:24;102950.47;;;19.63;36.89
62710;BME280;48770;51.624;5.886;2023-03-01T00:39:49;102948.81;;;19.62;36.86
62710;BME280;48770;51.624;5.886;2023-03-01T00:42:15;102947.69;;;19.63;36.77
62710;BME280;48770;51.624;5.886;2023-03-01T00:44:41;102936.59;;;19.63;36.63
62710;BME280;48770;51.624;5.886;2023-03-01T00:47:06;102932.16;;;19.62;36.78
62710;BME280;48770;51.624;5.886;2023-03-01T00:49:32;102931.63;;;19.60;36.73
62710;BME280;48770;51.624;5.886;2023-03-01T00:51:57;102937.19;;;19.60;36.91
62710;BME280;48770;51.624;5.886;2023-03-01T00:54:22;102935.53;;;19.59;36.91
62710;BME280;48770;51.624;5.886;2023-03-01T00:56:47;102927.19;;;19.59;36.79
62710;BME280;48770;51.624;5.886;2023-03-01T00:59:13;102925.53;;;19.58;36.85
62710;BME280;48770;51.624;5.886;2023-03-01T01:01:39;102926.66;;;19.57;36.67
62710;BME280;48770;51.624;5.886;2023-03-01T01:04:07;102927.78;;;19.56;36.81
62710;BME280;48770;51.624;5.886;2023-03-01T01:06:36;102932.50;;;19.55;36.53
62710;BME280;48770;51.624;5.886;2023-03-01T01:09:03;102928.91;;;19.55;36.81
62710;BME280;48770;51.624;5.886;2023-03-01T01:11:29;102921.41;;;19.55;36.60
62710;BME280;48770;51.624;5.886;2023-03-01T01:13:56;102925.31;;;19.54;36.90
62710;BME280;48770;51.624;5.886;2023-03-01T01:16:23;102918.38;;;19.52;36.45
62710;BME280;48770;51.624;5.886;2023-03-01T01:18:49;102911.13;;;19.51;36.63
62710;BME280;48770;51.624;5.886;2023-03-01T01:21:17;102907.28;;;19.52;36.49
62710;BME280;48770;51.624;5.886;2023-03-01T01:23:44;102899.22;;;19.50;36.65
62710;BME280;48770;51.624;5.886;2023-03-01T01:26:12;102905.59;;;19.51;36.69
62710;BME280;48770;51.624;5.886;2023-03-01T01:28:38;102903.94;;;19.50;36.76
62710;BME280;48770;51.624;5.886;2023-03-01T01:31:05;102901.44;;;19.48;36.58
62710;BME280;48770;51.624;5.886;2023-03-01T01:33:31;102904.22;;;19.48;36.53
62710;BME280;48770;51.624;5.886;2023-03-01T01:35:57;102889.81;;;19.46;36.61
62710;BME280;48770;51.624;5.886;2023-03-01T01:38:22;102886.22;;;19.46;36.61
62710;BME280;48770;51.624;5.886;2023-03-01T01:40:48;102888.16;;;19.45;36.47
62710;BME280;48770;51.624;5.886;2023-03-01T01:45:47;102885.16;;;19.41;36.76
62710;BME280;48770;51.624;5.886;2023-03-01T01:48:20;102876.84;;;19.41;36.54
62710;BME280;48770;51.624;5.886;2023-03-01T01:50:54;102874.06;;;19.41;36.69
62710;BME280;48770;51.624;5.886;2023-03-01T01:53:21;102866.84;;;19.40;36.41
62710;BME280;48770;51.624;5.886;2023-03-01T01:55:49;102865.22;;;19.39;36.52
62710;BME280;48770;51.624;5.886;2023-03-01T01:58:19;102855.75;;;19.40;36.56
62710;BME280;48770;51.624;5.886;2023-03-01T02:00:46;102860.78;;;19.38;36.45
62710;BME280;48770;51.624;5.886;2023-03-01T02:03:15;102863.84;;;19.37;36.48
62710;BME280;48770;51.624;5.886;2023-03-01T02:06:00;102860.25;;;19.36;36.55
62710;BME280;48770;51.624;5.886;2023-03-01T02:08:31;102867.22;;;19.34;36.60
62710;BME280;48770;51.624;5.886;2023-03-01T02:10:58;102868.88;;;19.35;36.73
62710;BME280;48770;51.624;5.886;2023-03-01T02:13:25;102862.50;;;19.34;36.25
62710;BME280;48770;51.624;5.886;2023-03-01T02:15:51;102872.75;;;19.34;36.33
62710;BME280;48770;51.624;5.886;2023-03-01T02:18:18;102867.22;;;19.34;36.60
62710;BME280;48770;51.624;5.886;2023-03-01T02:23:38;102875.28;;;19.30;36.59
62710;BME280;48770;51.624;5.886;2023-03-01T02:28:40;102870.88;;;19.29;36.56
62710;BME280;48770;51.624;5.886;2023-03-01T02:31:09;102865.31;;;19.29;36.48
62710;BME280;48770;51.624;5.886;2023-03-01T02:33:55;102862.84;;;19.28;36.74
62710;BME280;48770;51.624;5.886;2023-03-01T02:36:24;102858.13;;;19.28;36.37
62710;BME280;48770;51.624;5.886;2023-03-01T02:38:53;102861.72;;;19.29;36.58
62710;BME280;48770;51.624;5.886;2023-03-01T02:41:19;102862.84;;;19.28;36.47
62710;BME280;48770;51.624;5.886;2023-03-01T02:43:46;102860.06;;;19.28;36.57
62710;BME280;48770;51.624;5.886;2023-03-01T02:46:17;102856.47;;;19.27;36.48
62710;BME280;48770;51.624;5.886;2023-03-01T02:48:49;102852.03;;;19.26;36.40
62710;BME280;48770;51.624;5.886;2023-03-01T02:52:01;102844.81;;;19.25;36.34
62710;BME280;48770;51.624;5.886;2023-03-01T02:54:24;102849.00;;;19.23;36.25
62710;BME280;48770;51.624;5.886;2023-03-01T02:56:51;102852.59;;;19.23;36.26
62710;BME280;48770;51.624;5.886;2023-03-01T02:59:20;102865.34;;;19.24;36.44
62710;BME280;48770;51.624;5.886;2023-03-01T03:01:46;102867.28;;;19.24;36.55
62710;BME280;48770;51.624;5.886;2023-03-01T03:04:15;102862.88;;;19.23;36.37
62710;BME280;48770;51.624;5.886;2023-03-01T03:06:45;102861.75;;;19.24;36.50
62710;BME280;48770;51.624;5.886;2023-03-01T03:09:11;102849.84;;;19.23;36.30
62710;BME280;48770;51.624;5.886;2023-03-01T03:11:37;102864.53;;;19.24;36.57
62710;BME280;48770;51.624;5.886;2023-03-01T03:14:11;102858.97;;;19.24;36.38
62710;BME280;48770;51.624;5.886;2023-03-01T03:16:42;102858.75;;;19.20;36.19
62710;BME280;48770;51.624;5.886;2023-03-01T03:19:07;102850.41;;;19.20;36.24
62710;BME280;48770;51.624;5.886;2023-03-01T03:21:33;102860.69;;;19.20;36.13
62710;BME280;48770;51.624;5.886;2023-03-01T03:23:58;102857.91;;;19.20;36.23
62710;BME280;48770;51.624;5.886;2023-03-01T03:26:24;102854.31;;;19.19;36.51
62710;BME280;48770;51.624;5.886;2023-03-01T03:28:50;102857.09;;;19.19;36.47
62710;BME280;48770;51.624;5.886;2023-03-01T03:31:15;102862.94;;;19.18;36.51
62710;BME280;48770;51.624;5.886;2023-03-01T03:33:40;102856.56;;;19.17;36.11
62710;BME280;48770;51.624;5.886;2023-03-01T03:36:06;102856.56;;;19.17;36.40
62710;BME280;48770;51.624;5.886;2023-03-01T03:38:31;102848.53;;;19.16;36.32
62710;BME280;48770;51.624;5.886;2023-03-01T03:41:06;102844.94;;;19.15;35.97
62710;BME280;48770;51.624;5.886;2023-03-01T03:43:34;102849.66;;;19.15;35.97
62710;BME280;48770;51.624;5.886;2023-03-01T03:46:00;102846.06;;;19.14;36.34
62710;BME280;48770;51.624;5.886;2023-03-01T03:48:31;102847.16;;;19.13;36.09
62710;BME280;48770;51.624;5.886;2023-03-01T03:50:56;102835.25;;;19.13;36.14
62710;BME280;48770;51.624;5.886;2023-03-01T03:53:23;102836.06;;;19.13;36.16
62710;BME280;48770;51.624;5.886;2023-03-01T03:55:49;102843.56;;;19.13;36.23
62710;BME280;48770;51.624;5.886;2023-03-01T03:58:15;102843.88;;;19.11;36.34
62710;BME280;48770;51.624;5.886;2023-03-01T04:00:43;102835.53;;;19.11;36.27
62710;BME280;48770;51.624;5.886;2023-03-01T04:03:11;102836.97;;;19.08;36.25
62710;BME280;48770;51.624;5.886;2023-03-01T04:05:38;102833.88;;;19.10;36.04
62710;BME280;48770;51.624;5.886;2023-03-01T04:08:04;102830.59;;;19.08;36.03
62710;BME280;48770;51.624;5.886;2023-03-01T04:10:44;102822.56;;;19.06;36.18
62710;BME280;48770;51.624;5.886;2023-03-01T04:13:12;102823.38;;;19.07;36.17
62710;BME280;48770;51.624;5.886;2023-03-01T04:15:39;102826.47;;;19.05;36.10
62710;BME280;48770;51.624;5.886;2023-03-01T04:18:05;102832.81;;;19.06;36.39
62710;BME280;48770;51.624;5.886;2023-03-01T04:20:33;102818.97;;;19.06;35.92
62710;BME280;48770;51.624;5.886;2023-03-01T04:25:37;102829.53;;;19.04;36.26
62710;BME280;48770;51.624;5.886;2023-03-01T04:28:02;102812.88;;;19.04;36.12
62710;BME280;48770;51.624;5.886;2023-03-01T04:30:27;102807.34;;;19.04;36.14
62710;BME280;48770;51.624;5.886;2023-03-01T04:32:53;102800.97;;;19.03;36.17
62710;BME280;48770;51.624;5.886;2023-03-01T04:35:18;102792.34;;;19.05;35.91
62710;BME280;48770;51.624;5.886;2023-03-01T04:37:43;102803.44;;;19.05;36.08
62710;BME280;48770;51.624;5.886;2023-03-01T04:40:10;102798.44;;;19.07;35.87
62710;BME280;48770;51.624;5.886;2023-03-01T04:42:41;102796.50;;;19.07;35.92
62710;BME280;48770;51.624;5.886;2023-03-01T04:45:07;102789.28;;;19.06;35.93
62710;BME280;48770;51.624;5.886;2023-03-01T04:47:39;102795.66;;;19.07;35.97
62710;BME280;48770;51.624;5.886;2023-03-01T04:50:04;102798.13;;;19.08;36.04
62710;BME280;48770;51.624;5.886;2023-03-01T04:52:30;102805.63;;;19.08;35.76
62710;BME280;48770;51.624;5.886;2023-03-01T04:54:56;102789.00;;;19.08;35.72
62710;BME280;48770;51.624;5.886;2023-03-01T04:57:22;102790.13;;;19.07;35.85
62710;BME280;48770;51.624;5.886;2023-03-01T04:59:47;102789.28;;;19.06;35.80
62710;BME280;48770;51.624;5.886;2023-03-01T05:02:12;102791.78;;;19.08;35.88
62710;BME280;48770;51.624;5.886;2023-03-01T05:04:38;102790.13;;;19.07;35.87
62710;BME280;48770;51.624;5.886;2023-03-01T05:07:03;102789.28;;;19.06;35.77
62710;BME280;48770;51.624;5.886;2023-03-01T05:09:29;102793.19;;;19.05;35.79
62710;BME280;48770;51.624;5.886;2023-03-01T05:11:54;102793.47;;;19.04;35.99
62710;BME280;48770;51.624;5.886;2023-03-01T05:14:19;102783.50;;;19.03;35.83
62710;BME280;48770;51.624;5.886;2023-03-01T05:16:44;102791.00;;;19.02;35.89
62710;BME280;48770;51.624;5.886;2023-03-01T05:19:10;102781.84;;;19.02;35.86
62710;BME280;48770;51.624;5.886;2023-03-01T05:21:42;102773.84;;;19.00;35.87
62710;BME280;48770;51.624;5.886;2023-03-01T05:24:26;102772.44;;;18.98;35.85
62710;BME280;48770;51.624;5.886;2023-03-01T05:26:52;102768.84;;;18.97;35.85
62710;BME280;48770;51.624;5.886;2023-03-01T05:29:22;102764.44;;;18.96;35.98
62710;BME280;48770;51.624;5.886;2023-03-01T05:31:54;102760.81;;;18.96;35.94
62710;BME280;48770;51.624;5.886;2023-03-01T05:34:27;102768.31;;;18.95;36.10
62710;BME280;48770;51.624;5.886;2023-03-01T05:36:53;102759.75;;;18.92;36.00
62710;BME280;48770;51.624;5.886;2023-03-01T05:39:24;102752.28;;;18.92;36.13
62710;BME280;48770;51.624;5.886;2023-03-01T05:41:54;102755.34;;;18.91;36.15
62710;BME280;48770;51.624;5.886;2023-03-01T05:44:20;102749.81;;;18.91;35.73
62710;BME280;48770;51.624;5.886;2023-03-01T05:46:45;102744.56;;;18.89;35.99
62710;BME280;48770;51.624;5.886;2023-03-01T05:49:12;102743.44;;;18.90;36.06
62710;BME280;48770;51.624;5.886;2023-03-01T05:51:39;102749.25;;;18.89;35.86
62710;BME280;48770;51.624;5.886;2023-03-01T05:54:05;102747.63;;;18.88;35.89
62710;BME280;48770;51.624;5.886;2023-03-01T05:56:35;102759.53;;;18.88;36.02
62710;BME280;48770;51.624;5.886;2023-03-01T05:59:02;102747.09;;;18.86;35.88
62710;BME280;48770;51.624;5.886;2023-03-01T06:01:27;102754.56;;;18.85;35.71
62710;BME280;48770;51.624;5.886;2023-03-01T06:03:53;102759.28;;;18.85;35.68
62710;BME280;48770;51.624;5.886;2023-03-01T06:06:18;102758.47;;;18.84;35.74
62710;BME280;48770;51.624;5.886;2023-03-01T06:08:43;102760.41;;;18.84;35.74
62710;BME280;48770;51.624;5.886;2023-03-01T06:11:09;102762.34;;;18.83;35.78
62710;BME280;48770;51.624;5.886;2023-03-01T06:13:34;102763.19;;;18.84;35.83
62710;BME280;48770;51.624;5.886;2023-03-01T06:15:59;102764.00;;;18.84;35.73
62710;BME280;48770;51.624;5.886;2023-03-01T06:18:25;102768.72;;;18.84;35.54
62710;BME280;48770;51.624;5.886;2023-03-01T06:20:54;102762.06;;;18.85;35.60
62710;BME280;48770;51.624;5.886;2023-03-01T06:23:20;102764.00;;;18.84;35.50
62710;BME280;48770;51.624;5.886;2023-03-01T06:25:45;102764.00;;;18.84;35.50
62710;BME280;48770;51.624;5.886;2023-03-01T06:28:11;102762.59;;;18.87;35.46
62710;BME280;48770;51.624;5.886;2023-03-01T06:30:36;102758.69;;;18.88;35.75
62710;BME280;48770;51.624;5.886;2023-03-01T06:33:02;102756.22;;;18.86;35.58
62710;BME280;48770;51.624;5.886;2023-03-01T06:35:28;102762.59;;;18.87;35.43
62710;BME280;48770;51.624;5.886;2023-03-01T06:37:55;102760.94;;;18.86;35.88
62710;BME280;48770;51.624;5.886;2023-03-01T06:40:21;102756.22;;;18.86;35.73
62710;BME280;48770;51.624;5.886;2023-03-01T06:42:50;102760.94;;;18.86;35.35
62710;BME280;48770;51.624;5.886;2023-03-01T06:45:20;102756.22;;;18.86;35.63
62710;BME280;48770;51.624;5.886;2023-03-01T06:47:45;102750.97;;;18.85;35.63
62710;BME280;48770;51.624;5.886;2023-03-01T06:50:11;102750.97;;;18.85;35.34
62710;BME280;48770;51.624;5.886;2023-03-01T06:52:37;102752.09;;;18.84;35.53
62710;BME280;48770;51.624;5.886;2023-03-01T06:55:05;102746.56;;;18.84;35.61
62710;BME280;48770;51.624;5.886;2023-03-01T06:57:30;102746.56;;;18.84;35.62
62710;BME280;48770;51.624;5.886;2023-03-01T06:59:56;102748.50;;;18.83;35.57
62710;BME280;48770;51.624;5.886;2023-03-01T07:02:21;102737.41;;;18.83;35.70
62710;BME280;48770;51.624;5.886;2023-03-01T07:04:49;102738.53;;;18.82;35.47
62710;BME280;48770;51.624;5.886;2023-03-01T07:07:14;102747.97;;;18.81;35.61
62710;BME280;48770;51.624;5.886;2023-03-01T07:09:40;102744.38;;;18.81;35.46
62710;BME280;48770;51.624;5.886;2023-03-01T07:12:05;102747.13;;;18.81;35.74
62710;BME280;48770;51.624;5.886;2023-03-01T07:14:31;102749.09;;;18.80;35.84
62710;BME280;48770;51.624;5.886;2023-03-01T07:16:56;102750.22;;;18.79;35.52
62710;BME280;48770;51.624;5.886;2023-03-01T07:19:22;102752.16;;;18.78;35.62
62710;BME280;48770;51.624;5.886;2023-03-01T07:21:47;102751.84;;;18.80;35.58
62710;BME280;48770;51.624;5.886;2023-03-01T07:24:13;102762.41;;;18.78;35.70
62710;BME280;48770;51.624;5.886;2023-03-01T07:26:38;102764.34;;;18.77;35.79
62710;BME280;48770;51.624;5.886;2023-03-01T07:29:05;102768.78;;;18.78;35.85
62710;BME280;48770;51.624;5.886;2023-03-01T07:31:31;102765.19;;;18.78;35.66
62710;BME280;48770;51.624;5.886;2023-03-01T07:33:57;102766.84;;;18.79;35.59
62710;BME280;48770;51.624;5.886;2023-03-01T07:36:22;102756.88;;;18.78;35.36
62710;BME280;48770;51.624;5.886;2023-03-01T07:38:48;102761.28;;;18.79;35.57
62710;BME280;48770;51.624;5.886;2023-03-01T07:41:13;102760.75;;;18.77;35.58
62710;BME280;48770;51.624;5.886;2023-03-01T07:43:39;102768.78;;;18.78;35.51
62710;BME280;48770;51.624;5.886;2023-03-01T07:46:05;102767.94;;;18.78;35.32
62710;BME280;48770;51.624;5.886;2023-03-01T07:48:31;102767.94;;;18.78;35.33
62710;BME280;48770;51.624;5.886;2023-03-01T07:51:00;102771.56;;;18.78;35.46
62710;BME280;48770;51.624;5.886;2023-03-01T07:53:26;102771.25;;;18.80;35.44
62710;BME280;48770;51.624;5.886;2023-03-01T07:56:06;102783.47;;;18.79;35.45
62710;BME280;48770;51.624;5.886;2023-03-01T07:58:34;102773.75;;;18.82;35.41
62710;BME280;48770;51.624;5.886;2023-03-01T08:01:02;102765.41;;;18.82;35.47
62710;BME280;48770;51.624;5.886;2023-03-01T08:03:27;102773.75;;;18.82;35.32
62710;BME280;48770;51.624;5.886;2023-03-01T08:05:53;102761.53;;;18.83;35.49
62710;BME280;48770;51.624;5.886;2023-03-01T08:08:18;102768.72;;;18.84;35.18
62710;BME280;48770;51.624;5.886;2023-03-01T08:10:43;102767.31;;;18.86;35.26
62710;BME280;48770;51.624;5.886;2023-03-01T08:13:09;102767.03;;;18.88;35.36
62710;BME280;48770;51.624;5.886;2023-03-01T08:15:34;102767.56;;;18.90;35.19
62710;BME280;48770;51.624;5.886;2023-03-01T08:17:59;102755.34;;;18.91;35.01
62710;BME280;48770;51.624;5.886;2023-03-01T08:20:25;102758.66;;;18.93;35.12
62710;BME280;48770;51.624;5.886;2023-03-01T08:22:51;102751.97;;;18.94;35.32
62710;BME280;48770;51.624;5.886;2023-03-01T08:25:16;102756.41;;;18.95;35.16
62710;BME280;48770;51.624;5.886;2023-03-01T08:27:41;102761.94;;;18.95;35.25
62710;BME280;48770;51.624;5.886;2023-03-01T08:30:07;102758.06;;;18.96;35.49
62710;BME280;48770;51.624;5.886;2023-03-01T08:32:37;102759.72;;;18.97;35.14
62710;BME280;48770;51.624;5.886;2023-03-01T08:35:03;102756.63;;;18.98;35.18
62710;BME280;48770;51.624;5.886;2023-03-01T08:37:29;102752.22;;;18.97;35.28
62710;BME280;48770;51.624;5.886;2023-03-01T08:39:56;102740.00;;;18.98;35.21
62710;BME280;48770;51.624;5.886;2023-03-01T08:42:21;102748.31;;;18.98;35.28
62710;BME280;48770;51.624;5.886;2023-03-01T08:44:46;102745.84;;;18.97;35.15
62710;BME280;48770;51.624;5.886;2023-03-01T08:47:12;102739.47;;;18.96;35.07
62710;BME280;48770;51.624;5.886;2023-03-01T08:49:37;102741.72;;;18.94;35.19
62710;BME280;48770;51.624;5.886;2023-03-01T08:52:03;102735.34;;;18.94;35.19
62710;BME280;48770;51.624;5.886;2023-03-01T08:54:28;102740.91;;;18.94;35.55
62710;BME280;48770;51.624;5.886;2023-03-01T08:56:53;102735.34;;;18.94;35.23
62710;BME280;48770;51.624;5.886;2023-03-01T08:59:19;102728.97;;;18.93;34.97
62710;BME280;48770;51.624;5.886;2023-03-01T09:01:44;102735.34;;;18.94;35.13
62710;BME280;48770;51.624;5.886;2023-03-01T09:04:11;102734.53;;;18.93;35.27
62710;BME280;48770;51.624;5.886;2023-03-01T09:06:37;102735.34;;;18.94;35.18
62710;BME280;48770;51.624;5.886;2023-03-01T09:09:04;102733.41;;;18.94;35.49
62710;BME280;48770;51.624;5.886;2023-03-01T09:11:30;102722.59;;;18.93;35.40
62710;BME280;48770;51.624;5.886;2023-03-01T09:13:56;102735.34;;;18.94;35.21
62710;BME280;48770;51.624;5.886;2023-03-01T09:16:23;102730.94;;;18.93;35.27
62710;BME280;48770;51.624;5.886;2023-03-01T09:18:51;102728.16;;;18.93;34.97
62710;BME280;48770;51.624;5.886;2023-03-01T09:21:18;102726.22;;;18.93;35.20
62710;BME280;48770;51.624;5.886;2023-03-01T09:23:45;102725.38;;;18.93;35.18
62710;BME280;48770;51.624;5.886;2023-03-01T09:26:14;102723.72;;;18.92;35.63
62710;BME280;48770;51.624;5.886;2023-03-01T09:28:42;102732.03;;;18.92;35.30
62710;BME280;48770;51.624;5.886;2023-03-01T09:31:08;102721.78;;;18.92;35.30
62710;BME280;48770;51.624;5.886;2023-03-01T09:33:33;102720.97;;;18.92;35.37
62710;BME280;48770;51.624;5.886;2023-03-01T09:36:00;102720.97;;;18.92;35.25
62710;BME280;48770;51.624;5.886;2023-03-01T09:38:27;102714.59;;;18.91;35.36
62710;BME280;48770;51.624;5.886;2023-03-01T09:40:53;102709.03;;;18.91;35.38
62710;BME280;48770;51.624;5.886;2023-03-01T09:43:20;102713.75;;;18.91;35.16
62710;BME280;48770;51.624;5.886;2023-03-01T09:45:48;102707.09;;;18.92;35.19
62710;BME280;48770;51.624;5.886;2023-03-01T09:48:20;102706.28;;;18.91;35.39
62710;BME280;48770;51.624;5.886;2023-03-01T09:50:50;102707.94;;;18.92;35.26
62710;BME280;48770;51.624;5.886;2023-03-01T09:53:22;102699.91;;;18.91;35.55
62710;BME280;48770;51.624;5.886;2023-03-01T09:56:25;102693.00;;;18.88;35.46
62710;BME280;48770;51.624;5.886;2023-03-01T10:05:12;102677.78;;;18.86;35.41
62710;BME280;48770;51.624;5.886;2023-03-01T10:07:47;102678.91;;;18.85;35.68
62710;BME280;48770;51.624;5.886;2023-03-01T10:10:31;102665.88;;;18.85;35.42
62710;BME280;48770;51.624;5.886;2023-03-01T10:15:55;102655.63;;;18.86;35.59
62710;BME280;48770;51.624;5.886;2023-03-01T10:18:28;102655.03;;;18.89;35.37
62710;BME280;48770;51.624;5.886;2023-03-01T10:21:05;102654.50;;;18.87;35.69
62710;BME280;48770;51.624;5.886;2023-03-01T10:23:35;102657.81;;;18.89;35.58
62710;BME280;48770;51.624;5.886;2023-03-01T10:29:09;102644.25;;;18.87;35.81
62710;BME280;48770;51.624;5.886;2023-03-01T10:31:46;102645.06;;;18.88;35.75
62710;BME280;48770;51.624;5.886;2023-03-01T10:34:17;102635.31;;;18.90;35.57
62710;BME280;48770;51.624;5.886;2023-03-01T10:36:45;102629.50;;;18.92;35.63
62710;BME280;48770;51.624;5.886;2023-03-01T10:39:18;102623.66;;;18.93;35.71
62710;BME280;48770;51.624;5.886;2023-03-01T10:41:58;102625.81;;;18.96;35.37
62710;BME280;48770;51.624;5.886;2023-03-01T10:44:42;102630.25;;;18.97;35.43
62710;BME280;48770;51.624;5.886;2023-03-01T10:47:23;102626.34;;;18.98;35.31
62710;BME280;48770;51.624;5.886;2023-03-01T10:50:19;102625.53;;;18.98;35.57
62710;BME280;48770;51.624;5.886;2023-03-01T10:52:57;102626.91;;;19.00;35.42
62710;BME280;48770;51.624;5.886;2023-03-01T10:55:36;102631.03;;;19.03;35.68
62710;BME280;48770;51.624;5.886;2023-03-01T10:58:19;102633.28;;;19.01;35.54
62710;BME280;48770;51.624;5.886;2023-03-01T11:00:48;102633.28;;;19.01;35.72
62710;BME280;48770;51.624;5.886;2023-03-01T11:03:18;102637.41;;;19.03;35.50
62710;BME280;48770;51.624;5.886;2023-03-01T11:05:53;102642.13;;;19.03;35.67
62710;BME280;48770;51.624;5.886;2023-03-01T11:08:37;102636.03;;;19.01;35.66
62710;BME280;48770;51.624;5.886;2023-03-01T11:11:05;102632.97;;;19.02;35.44
62710;BME280;48770;51.624;5.886;2023-03-01T11:13:31;102635.44;;;19.04;35.40
62710;BME280;48770;51.624;5.886;2023-03-01T11:16:08;102638.53;;;19.02;35.35
62710;BME280;48770;51.624;5.886;2023-03-01T11:18:35;102628.25;;;19.03;35.51
62710;BME280;48770;51.624;5.886;2023-03-01T11:21:01;102622.41;;;19.04;35.61
62710;BME280;48770;51.624;5.886;2023-03-01T11:23:29;102620.47;;;19.05;35.41
62710;BME280;48770;51.624;5.886;2023-03-01T11:25:59;102605.47;;;19.06;35.60
62710;BME280;48770;51.624;5.886;2023-03-01T11:28:27;102608.78;;;19.08;35.52
62710;BME280;48770;51.624;5.886;2023-03-01T11:31:06;102613.50;;;19.07;35.57
62710;BME280;48770;51.624;5.886;2023-03-01T11:38:55;102621.53;;;19.09;35.65
62710;BME280;48770;51.624;5.886;2023-03-01T11:41:25;102619.28;;;19.11;35.44
62710;BME280;48770;51.624;5.886;2023-03-01T11:44:14;102610.44;;;19.09;35.53
62710;BME280;48770;51.624;5.886;2023-03-01T11:47:21;102609.31;;;19.10;35.48
62710;BME280;48770;51.624;5.886;2023-03-01T11:50:26;102609.31;;;19.10;35.77
62710;BME280;48770;51.624;5.886;2023-03-01T11:53:04;102619.28;;;19.11;35.49
62710;BME280;48770;51.624;5.886;2023-03-01T11:58:34;102603.69;;;19.15;35.77
62710;BME280;48770;51.624;5.886;2023-03-01T12:09:07;102594.66;;;19.28;35.58
62710;BME280;48770;51.624;5.886;2023-03-01T12:11:43;102589.63;;;19.30;35.65
62710;BME280;48770;51.624;5.886;2023-03-01T12:17:11;102592.22;;;19.40;35.49
62710;BME280;48770;51.624;5.886;2023-03-01T12:22:30;102586.81;;;19.49;35.73
62710;BME280;48770;51.624;5.886;2023-03-01T12:42:05;102559.97;;;19.82;35.81
62710;BME280;48770;51.624;5.886;2023-03-01T12:45:01;102556.59;;;19.85;35.70
62710;BME280;48770;51.624;5.886;2023-03-01T12:48:09;102557.09;;;19.87;35.81
62710;BME280;48770;51.624;5.886;2023-03-01T12:50:47;102545.69;;;19.89;35.81
62710;BME280;48770;51.624;5.886;2023-03-01T12:53:25;102534.59;;;19.89;35.81
62710;BME280;48770;51.624;5.886;2023-03-01T12:55:54;102533.97;;;19.92;35.77
62710;BME280;48770;51.624;5.886;2023-03-01T12:58:35;102525.66;;;19.92;35.87
62710;BME280;48770;51.624;5.886;2023-03-01T13:11:59;102512.59;;;19.92;35.96
62710;BME280;48770;51.624;5.886;2023-03-01T13:16:54;102503.34;;;19.97;35.97
62710;BME280;48770;51.624;5.886;2023-03-01T13:19:27;102498.00;;;20.00;35.73
62710;BME280;48770;51.624;5.886;2023-03-01T13:22:28;102506.63;;;19.99;35.85
62710;BME280;48770;51.624;5.886;2023-03-01T13:25:18;102493.56;;;19.99;35.95
62710;BME280;48770;51.624;5.886;2023-03-01T13:27:44;102492.13;;;20.02;35.74
62710;BME280;48770;51.624;5.886;2023-03-01T13:30:45;102489.66;;;20.00;36.02
62710;BME280;48770;51.624;5.886;2023-03-01T13:35:48;102469.84;;;20.07;35.86
62710;BME280;48770;51.624;5.886;2023-03-01T13:38:47;102466.25;;;20.07;36.03
62710;BME280;48770;51.624;5.886;2023-03-01T13:41:31;102455.66;;;20.09;35.85
62710;BME280;48770;51.624;5.886;2023-03-01T13:44:21;102454.00;;;20.08;35.79
62710;BME280;48770;51.624;5.886;2023-03-01T13:46:50;102443.41;;;20.10;35.78
62710;BME280;48770;51.624;5.886;2023-03-01T13:49:20;102450.09;;;20.09;35.87
62710;BME280;48770;51.624;5.886;2023-03-01T13:51:47;102442.59;;;20.09;35.98
62710;BME280;48770;51.624;5.886;2023-03-01T13:54:16;102441.78;;;20.09;36.10
62710;BME280;48770;51.624;5.886;2023-03-01T13:56:47;102433.75;;;20.07;36.05
62710;BME280;48770;51.624;5.886;2023-03-01T13:59:15;102430.16;;;20.07;35.86
62710;BME280;48770;51.624;5.886;2023-03-01T14:01:41;102424.59;;;20.07;36.05
62710;BME280;48770;51.624;5.886;2023-03-01T14:04:23;102422.13;;;20.05;35.84
62710;BME280;48770;51.624;5.886;2023-03-01T14:06:48;102406.06;;;20.02;35.93
62710;BME280;48770;51.624;5.886;2023-03-01T14:09:23;102421.91;;;20.01;36.06
62710;BME280;48770;51.624;5.886;2023-03-01T14:22:41;102410.91;;;19.96;36.05
62710;BME280;48770;51.624;5.886;2023-03-01T14:25:36;102408.75;;;19.93;35.90
62710;BME280;48770;51.624;5.886;2023-03-01T14:28:19;102404.31;;;19.92;36.29
62710;BME280;48770;51.624;5.886;2023-03-01T14:30:49;102395.16;;;19.92;35.85